Архив погоды в Морозовске

Метеограмма Морозовск
Четверг, 24 Мая
Время местн. Темп Ветер Видим Явления Облачность нижн/средн/верх Атм. давл. Влжн Точка росы ВНГО R Сост. почвы Tg s
Напр Скр Прв ур.ст ур.м изм
21:00 +22.7° Ю-З 2 - 20 км - облачно с прояснениями 751 758 +0.3 61% +14.9° - - - - -
18:00 +26.3° З 4 - 20 км - облачно с прояснениями 750 758 -0.4 47% +14° более 2.5 км - - - -
15:00 +29.8° З,Ю-З 4 - 20 км - переменная облачность 751 758 -0.8 34% +12.4° 1 км - - - -
12:00 +28.9° З 2 - 20 км - переменная облачность 751 759 -0.8 39% +13.7° более 2.5 км - - - -
09:00 +25.2° Ю,Ю-З 1 - 20 км - облачно с прояснениями 752 760 -0.6 46% +12.7° более 2.5 км - - - -
06:00 +16.8° С-В 1 - 20 км - преимущественно облачно 753 761 -0.2 68% +10.9° - - Сухая (без трещин) - -
03:00 +15.5° Ю-В 1 - 20 км - облачно с прояснениями 753 761 -0.6 67% +9.3° - - - - -
00:00 +16.4° В,С-В 1 - 20 км - переменная облачность 754 762 +0.1 72% +11.3° - - - - -
Среда, 23 Мая
Время местн. Темп Ветер Видим Явления Облачность нижн/средн/верх Атм. давл. Влжн Точка росы ВНГО R Сост. почвы Tg s
Напр Скр Прв ур.ст ур.м изм
21:00 +22.3° З 2 - 20 км - преимущественно облачно 754 762 -0.8 57% +13.5° - - - - -
18:00 +25.8° З 2 - 20 км - облачно с прояснениями 754 762 -1.3 45% +13° - - - - -
15:00 +31.8° Ю-В 5 - 20 км - преимущественно облачно 756 763 -1.6 18% +4.6° 1.5 км - - - -
12:00 +28.7° Ю-В 6 11 20 км - преимущественно облачно 757 765 -0.4 22% +5° более 2.5 км - - - -
09:00 +23.6° В 3 - 20 км небо без изменений {ливневые осадки} облачно 758 766 +0.4 47% +11.5° 1 км - - - -
06:00 +19.9° В 3 - 20 км облака развиваются {ливневые осадки} преимущественно облачно 757 765 +0.2 61% +12.1° 1 км - Влажная (без луж) - -
03:00 +19.3° С-В 2 - 20 км - облачно 757 765 -0.4 67% +13.1° - - - - -
00:00 +20.5° С-В 1 - 20 км - облачно 757 765 -0.2 68% +14.3° - - - - -
Вторник, 22 Мая
Время местн. Темп Ветер Видим Явления Облачность нижн/средн/верх Атм. давл. Влжн Точка росы ВНГО R Сост. почвы Tg s
Напр Скр Прв ур.ст ур.м изм
21:00 +24.1° В 2 - 20 км - преимущественно облачно 758 765 +0.2 52% +13.7° 1 км - - - -
18:00 +28.5° В 2 - 20 км - преимущественно облачно 758 765 0 32% +10.3° - - - - -
15:00 +29° С-В 3 - 20 км - преимущественно облачно 758 765 -0.2 34% +11.6° 1 км - - - -
12:00 +27.6° В,С-В 3 - 20 км - переменная облачность 758 765 -0.2 38% +11.9° более 2.5 км - - - -
09:00 +23.2° С 2 - 20 км облака развиваются {туман} переменная облачность 758 766 +0.5 65% +16.3° более 2.5 км - - - -
06:00 +12.6° З 1 - 0.5 км туман неба не видно 757 765 +0.8 97% +12.2° более 2.5 км - Влажная (без луж) - -
03:00 +11.8° З 1 - 0.5 км туман неба не видно 757 765 +0.3 97% +11.3° более 2.5 км - - - -
00:00 +12.9° штиль 0 - 1 км дымка ясно 756 764 +0.1 96% +12.2° более 2.5 км - - - -
Понедельник, 21 Мая
Время местн. Темп Ветер Видим Явления Облачность нижн/средн/верх Атм. давл. Влжн Точка росы ВНГО R Сост. почвы Tg s
Напр Скр Прв ур.ст ур.м изм
21:00 +16.4° В 1 - 20 км - переменная облачность 756 764 +0.9 90% +14.8° 1 км - - - -
18:00 +21.7° В 3 - 20 км - преимущественно облачно 755 763 +0.1 69% +15.8° 1 км - - - -